Memorial Village's Hourly Summary for Friday, May 11, 2018
Hour Temp
(f)
RH
(%)
Solar Rad.
(MJ/m2)
Rainfall
(in)
Wind
(mph)
5/11/2018 12:00 AM 74 83 0 0 0.33
5/11/2018 1:00 AM 73 85 0 0 0.16
5/11/2018 2:00 AM 72 89 0 0 0.04
5/11/2018 3:00 AM 72 89 0 0 0.15
5/11/2018 4:00 AM 72 90 0 0 0.09
5/11/2018 5:00 AM 71 91 0 0 0.03
5/11/2018 6:00 AM 71 92 0.01 0 0
5/11/2018 7:00 AM 73 81 0.14 0 0.09
5/11/2018 8:00 AM 76 73 0.64 0 1.26
5/11/2018 9:00 AM 79 62 1.51 0 2.91
5/11/2018 10:00 AM 83 46 2.14 0 2.62
5/11/2018 11:00 AM 84 43 2.8 0 3.73
5/11/2018 12:00 PM 87 39 2.77 0 2.15
5/11/2018 1:00 PM 88 37 2.69 0 2.4
5/11/2018 2:00 PM 88 37 2.65 0 3.14
5/11/2018 3:00 PM 88 38 2.1 0 2.64
5/11/2018 4:00 PM 88 42 2.19 0 3.19
5/11/2018 5:00 PM 86 48 1.13 0 2.52
5/11/2018 6:00 PM 84 51 0.62 0 2.64
5/11/2018 7:00 PM 81 58 0.11 0 1.88
5/11/2018 8:00 PM 79 65 0 0 1.46
5/11/2018 9:00 PM 77 74 0 0 0.91
5/11/2018 10:00 PM 77 79 0 0 1.24
5/11/2018 11:00 PM 76 82 0 0 1
Data Summary 79 65 21.50 0.00 1.52